Sidnaw, Michigan
Current Conditions -  °F | °C
As of 5:35 AM on Friday 31 Oct 2014 (Local Time) from KLNL Reporting Station
Light Snow Light Snow  
Wind Chill: 16°   Ceiling: 2300
Heat Index: 28°   Visibility: 3mi
Dew Point: 25°   Wind: 16mph
Humidity: 88%   Direction: 360°N
Pressure: 30.25"   Gusts: NA
Location:  46.5°N, 88.71°W
Report Text: KLNL 310935Z AUTO 36014KT 3SM -SN SCT014 BKN023 OVC041 M02/M04 A3025 RMK AO2 T10221040
Loading
Personal Weather Stations






























Interactive Weather Map
Tropical Storm Tracking
New forecast layout! Learn more

10-Day Weather Forecast

Advertisements
Track Severe Weather on mobile